Latest Weather Observations for Port Macquarie Airport

IDN60801

Issued at 6:32 pm EST Saturday 23 May 2015 (issued every 30 minutes, with the page automatically refreshed every 10 minutes)

About weather observations | Map of weather stations | Latest weather observations for NSW | Other Formats
Station Details ID: 060139 Name: PORT MACQUARIE AIRPORT AWS Lat: -31.43 Lon: 152.87 Height: 4.2 m
Data from the previous 72 hours. | See also: Recent months at Port Macquarie Airport
Date/Time
EST
Temp
°C
App
Temp
°C
Dew
Point
Rel
Hum
%
Delta-T
°C
Wind Press
QNH
hPa
Press
MSL
hPa
Rain
since 9 am
mm
Dir
 
Spd
km/h
Gust
km/h
Spd
kts
Gust
kts
23/06:30pm 14.9 13.3 12.9 88 1.1 W 13 19 7 10 1027.1 1027.1 1.2
23/06:00pm 14.9 14.3 13.4 91 0.8 W 9 13 5 7 1027.0 1027.0 1.0
23/05:30pm 15.2 13.0 13.4 89 1.0 WSW 17 24 9 13 1026.8 1026.8 1.0
23/05:00pm 15.7 13.5 13.2 85 1.4 SW 17 22 9 12 1026.6 1026.6 1.0
23/04:30pm 15.9 15.3 13.4 85 1.4 SSW 9 11 5 6 1026.3 1026.3 1.0
23/04:00pm 16.7 15.2 13.2 80 1.9 SW 13 20 7 11 1026.3 1026.3 1.0
23/03:30pm 16.8 15.5 13.7 82 1.8 W 13 19 7 10 1025.8 1025.8 1.0
23/03:00pm 15.8 14.6 14.0 89 1.0 WSW 13 19 7 10 1025.7 1025.7 1.0
23/02:30pm 15.4 14.7 14.3 93 0.6 WSW 11 15 6 8 1025.8 1025.8 1.0
23/02:00pm 15.4 13.2 14.3 93 0.6 SW 19 24 10 13 1025.8 1025.8 1.0
23/01:51pm 15.5 14.1 14.5 94 0.6 SW 15 22 8 12 1025.9 1025.9 0.8
23/01:30pm 15.8 13.8 14.0 89 1.0 SSW 17 26 9 14 1025.9 1025.9 0.4
23/01:26pm 15.9 13.3 13.7 87 1.2 SW 20 28 11 15 1025.8 1025.8 0.2
23/01:00pm 17.1 14.0 12.2 73 2.7 SW 20 32 11 17 1025.6 1025.6 0.0
23/12:30pm 17.9 15.5 13.8 77 2.3 SW 19 24 10 13 1025.7 1025.7 0.0
23/12:00pm 17.2 14.4 12.7 75 2.5 SW 19 24 10 13 1026.0 1026.0 0.0
23/11:30am 16.7 14.8 13.0 79 2.1 SW 15 22 8 12 1026.6 1026.6 0.0
23/11:00am 17.0 13.9 12.3 74 2.6 WSW 20 30 11 16 1026.7 1026.7 0.0
23/10:30am 16.8 13.9 12.9 78 2.2 SW 20 30 11 16 1026.8 1026.8 0.0
23/10:00am 16.4 12.8 11.8 74 2.5 SW 22 30 12 16 1026.9 1026.9 0.0
23/09:30am 16.5 13.3 11.9 74 2.5 SW 20 28 11 15 1026.6 1026.6 0.0
23/09:00am 15.7 12.0 11.5 76 2.2 SW 22 30 12 16 1026.2 1026.2 26.0
23/08:30am 15.0 11.7 11.6 80 1.8 SW 20 26 11 14 1026.0 1026.0 26.0
23/08:00am 13.7 11.7 11.6 87 1.1 SW 13 17 7 9 1025.5 1025.5 26.0
23/07:30am 13.3 10.9 11.4 88 1.0 SW 15 24 8 13 1025.2 1025.2 26.0
23/07:00am 12.9 10.8 11.3 90 0.8 WSW 13 17 7 9 1024.8 1024.8 26.0
23/06:30am 12.8 10.7 11.2 90 0.8 WSW 13 20 7 11 1024.4 1024.4 26.0
23/06:00am 12.7 10.6 11.3 91 0.7 WSW 13 17 7 9 1024.5 1024.5 26.0
23/05:30am 12.5 10.5 11.4 93 0.6 WSW 13 15 7 8 1023.9 1023.9 26.0
23/05:00am 12.6 11.4 11.5 93 0.6 SW 9 13 5 7 1023.9 1023.9 25.8
23/04:30am 12.6 10.5 11.3 92 0.7 WSW 13 20 7 11 1023.3 1023.3 25.6
23/04:00am 12.6 10.2 11.5 93 0.6 WSW 15 19 8 10 1023.1 1023.1 25.6
23/03:30am 12.8 10.1 11.7 93 0.6 WSW 17 20 9 11 1023.0 1023.0 25.6
23/03:00am 12.8 9.8 11.9 94 0.5 WSW 19 28 10 15 1022.8 1022.8 25.4
23/02:50am 12.9 9.7 12.0 94 0.5 WSW 20 28 11 15 1023.0 1023.0 25.4
23/02:33am 13.0 9.8 11.9 93 0.6 WSW 20 28 11 15 1023.1 1023.1 25.2
23/02:30am 13.0 9.8 11.9 93 0.6 WSW 20 28 11 15 1023.2 1023.2 24.8
23/02:00am 13.0 9.4 11.7 92 0.7 WSW 22 30 12 16 1023.0 1023.0 24.0
23/01:30am 13.0 9.9 11.7 92 0.7 WSW 19 30 10 16 1022.9 1022.9 23.2
23/01:00am 13.1 10.1 11.8 92 0.7 W 19 30 10 16 1022.6 1022.6 23.0
23/12:30am 13.4 10.4 12.1 92 0.7 W 19 32 10 17 1022.8 1022.8 22.6
23/12:00am 13.5 10.4 12.2 92 0.7 WSW 20 35 11 19 1022.4 1022.4 22.6
 
Date/Time
EST
Temp
°C
App
Temp
°C
Dew
Point
Rel
Hum
%
Delta-T
°C
Wind Press
QNH
hPa
Press
MSL
hPa
Rain
since 9 am
mm
Dir
 
Spd
km/h
Gust
km/h
Spd
kts
Gust
kts
22/11:30pm 14.0 10.2 12.4 90 0.9 WSW 24 32 13 17 1022.5 1022.5 22.6
22/11:00pm 13.7 8.4 11.2 85 1.3 SSW 30 48 16 26 1022.2 1022.2 22.6
22/10:54pm 13.8 8.1 11.8 88 1.1 SSW 33 48 18 26 1022.1 1022.1 22.4
22/10:30pm 13.7 10.2 12.3 91 0.8 WSW 22 30 12 16 1021.6 1021.6 22.2
22/10:00pm 14.1 10.3 12.5 90 0.9 WSW 24 33 13 18 1021.4 1021.4 22.0
22/09:30pm 14.2 9.6 12.2 88 1.1 SW 28 44 15 24 1021.0 1021.0 22.0
22/09:00pm 14.2 10.1 12.8 91 0.8 WSW 26 35 14 19 1020.6 1020.6 22.0
22/08:30pm 14.3 9.9 13.0 92 0.7 WSW 28 37 15 20 1020.2 1020.2 22.0
22/08:01pm 14.4 11.3 13.3 93 0.6 WSW 22 30 12 16 1019.9 1019.9 21.8
22/08:00pm 14.4 11.3 13.3 93 0.6 WSW 22 30 12 16 1019.9 1019.9 21.8
22/07:50pm 14.4 10.1 13.3 93 0.6 SW 28 39 15 21 1019.7 1019.7 21.4
22/07:30pm 14.6 10.4 13.6 94 0.6 SW 28 39 15 21 1019.4 1019.4 20.2
22/07:04pm 14.8 10.3 13.7 93 0.6 SW 30 50 16 27 1018.6 1018.6 19.2
22/07:00pm 14.8 10.3 13.7 93 0.6 SW 30 46 16 25 1018.5 1018.5 19.2
22/06:50pm 14.8 9.9 13.8 94 0.6 SW 32 44 17 24 1018.4 1018.4 19.2
22/06:30pm 15.0 10.3 14.2 95 0.5 SW 32 50 17 27 1018.0 1018.0 17.0
22/06:27pm 15.0 9.7 14.2 95 0.5 SW 35 52 19 28 1017.8 1017.8 16.6
22/06:26pm 15.0 9.7 14.2 95 0.5 SW 35 52 19 28 1017.7 - 16.6
22/06:18pm 14.9 9.9 13.9 94 0.6 SW 33 52 18 28 1017.4 1017.4 16.0
22/06:00pm 14.7 11.8 14.1 96 0.3 SW 22 41 12 22 1017.6 1017.6 12.2
22/05:59pm 14.7 11.8 14.1 96 0.3 SW 22 41 12 22 1017.6 1017.6 11.2
22/05:58pm 14.6 11.7 14.0 96 0.3 SW 22 32 12 17 1017.6 - 10.2
22/05:37pm 14.5 10.7 13.7 95 0.4 WSW 26 39 14 21 1016.8 1016.8 3.8
22/05:30pm 14.4 10.9 13.4 94 0.6 WSW 24 39 13 21 1016.5 1016.5 2.8
22/05:00pm 14.5 10.6 13.2 92 0.7 WSW 26 37 14 20 1015.6 1015.6 1.2
22/04:30pm 14.7 12.0 13.4 92 0.7 WSW 20 28 11 15 1015.2 1015.2 1.0
22/04:00pm 15.0 11.2 13.7 92 0.7 WSW 26 37 14 20 1014.7 1014.7 0.8
22/03:44pm 15.5 10.6 13.7 89 1.0 SW 32 50 17 27 1014.5 - 0.0
22/03:43pm 15.6 10.7 13.6 88 1.1 SW 32 50 17 27 1014.5 1014.5 0.0
22/03:30pm 16.2 10.0 12.7 80 1.9 SW 37 50 20 27 1014.2 1014.2 0.0
22/03:01pm 17.0 11.8 11.7 71 2.9 WSW 30 52 16 28 1013.7 1013.7 0.0
22/03:00pm 17.3 12.7 12.2 72 2.8 WSW 28 41 15 22 1013.7 1013.7 0.0
22/02:32pm 17.6 12.5 11.8 69 3.2 WSW 30 48 16 26 1013.3 1013.3 0.0
22/02:30pm 17.4 12.6 11.7 69 3.1 WSW 28 44 15 24 1013.3 1013.3 0.0
22/02:00pm 17.0 12.7 11.9 72 2.8 WSW 26 39 14 21 1013.1 1013.1 0.0
22/01:30pm 17.4 12.9 11.4 68 3.3 WSW 26 37 14 20 1013.0 1013.0 0.0
22/01:00pm 18.0 12.3 11.1 64 3.7 WSW 32 46 17 25 1012.9 1012.9 0.0
22/12:52pm 18.4 13.5 11.2 63 3.9 WSW 28 46 15 25 1012.9 1012.9 0.0
22/12:30pm 17.5 14.5 11.8 69 3.1 WSW 19 26 10 14 1013.1 1013.1 0.0
22/12:00pm 17.7 13.6 11.5 67 3.4 WSW 24 35 13 19 1013.4 1013.4 0.0
22/11:30am 18.1 15.4 13.0 72 2.9 WSW 19 24 10 13 1013.9 1013.9 0.0
22/11:00am 17.9 15.0 12.8 72 2.8 W 20 30 11 16 1014.0 1014.0 0.0
22/10:30am 16.4 14.7 12.6 78 2.1 W 13 17 7 9 1014.1 1014.1 0.0
22/10:00am 16.3 14.2 12.5 78 2.1 W 15 24 8 13 1014.5 1014.5 0.0
22/09:30am 15.7 13.6 12.3 80 1.9 W 15 24 8 13 1014.6 1014.6 0.0
22/09:00am 15.2 14.0 12.9 86 1.3 WSW 11 13 6 7 1014.6 1014.6 7.0
22/08:30am 14.6 12.9 12.5 87 1.1 W 13 19 7 10 1014.5 1014.5 7.0
22/08:00am 14.4 13.0 12.3 87 1.1 W 11 17 6 9 1014.5 1014.5 7.0
22/07:30am 14.0 12.8 12.7 92 0.7 SW 11 15 6 8 1014.4 1014.4 7.0
22/07:00am 13.5 12.9 12.4 93 0.6 W 7 9 4 5 1014.2 1014.2 7.0
22/06:30am 13.5 12.6 12.6 94 0.5 W 9 13 5 7 1014.1 1014.1 7.0
22/06:00am 13.5 13.2 12.6 94 0.5 WSW 6 9 3 5 1013.5 1013.5 7.0
22/05:30am 14.0 13.3 13.1 94 0.5 W 9 13 5 7 1013.6 1013.6 7.0
22/05:00am 14.1 13.4 13.3 95 0.4 W 9 15 5 8 1013.7 1013.7 7.0
22/04:30am 14.3 13.7 13.5 95 0.4 W 9 13 5 7 1013.6 1013.6 7.0
22/04:00am 14.4 15.5 13.6 95 0.4 CALM 0 0 0 0 1013.8 1013.8 7.0
22/03:30am 14.7 14.6 13.9 95 0.4 WSW 7 11 4 6 1013.9 1013.9 7.0
22/03:00am 14.8 14.4 14.0 95 0.4 W 9 13 5 7 1013.8 1013.8 7.0
22/02:30am 14.9 13.7 14.1 95 0.5 W 13 17 7 9 1014.2 1014.2 7.0
22/02:00am 15.0 13.9 14.2 95 0.5 WNW 13 17 7 9 1014.6 1014.6 6.8
22/01:30am 15.1 14.5 14.5 96 0.3 WNW 11 13 6 7 1014.8 1014.8 6.8
22/01:00am 15.1 14.5 14.5 96 0.3 NW 11 15 6 8 1014.9 1014.9 6.8
22/12:30am 15.4 14.1 14.8 96 0.3 WSW 15 19 8 10 1015.0 1015.0 6.4
22/12:00am 15.4 13.7 14.8 96 0.3 WNW 17 22 9 12 1015.5 1015.5 4.6
 
Date/Time
EST
Temp
°C
App
Temp
°C
Dew
Point
Rel
Hum
%
Delta-T
°C
Wind Press
QNH
hPa
Press
MSL
hPa
Rain
since 9 am
mm
Dir
 
Spd
km/h
Gust
km/h
Spd
kts
Gust
kts
21/11:30pm 15.4 14.1 14.9 97 0.3 WNW 15 20 8 11 1015.6 1015.6 4.2
21/11:00pm 15.1 14.9 14.6 97 0.3 NW 9 13 5 7 1015.8 1015.8 4.2
21/10:30pm 15.2 15.4 14.6 96 0.3 WNW 7 11 4 6 1015.9 1015.9 4.2
21/10:00pm 15.5 15.4 15.0 97 0.3 W 9 13 5 7 1016.1 1016.1 4.2
21/09:30pm 15.5 15.4 15.0 97 0.3 WNW 9 13 5 7 1016.4 1016.4 4.2
21/09:00pm 15.5 14.7 15.2 98 0.2 W 13 17 7 9 1016.5 1016.5 4.0
21/08:30pm 15.3 15.6 15.0 98 0.2 WNW 7 9 4 5 1016.8 1016.8 4.0
21/08:00pm 15.4 15.3 14.9 97 0.3 WNW 9 11 5 6 1016.6 1016.6 4.0
21/07:30pm 15.1 14.5 14.6 97 0.3 WNW 11 13 6 7 1016.7 1016.7 4.0
21/07:00pm 14.9 16.3 14.3 96 0.3 CALM 0 0 0 0 1016.6 1016.6 4.0
21/06:30pm 15.5 17.1 14.9 96 0.3 CALM 0 0 0 0 1016.7 1016.7 4.0
21/06:00pm 15.9 16.5 15.4 97 0.3 N 6 7 3 4 1017.1 1017.1 4.0
21/05:30pm 15.5 16.3 14.7 95 0.5 NNW 4 9 2 5 1016.8 1016.8 4.0
21/05:00pm 16.3 18.0 15.3 94 0.6 CALM 0 4 0 2 1015.7 1015.7 4.0
21/04:30pm 16.9 18.4 15.8 93 0.6 ESE 2 7 1 4 1015.5 1015.5 4.0
21/04:00pm 17.2 18.7 15.7 91 0.9 NW 2 9 1 5 1017.3 1017.3 4.0
21/03:30pm 17.4 19.3 15.7 90 1.0 CALM 0 0 0 0 1016.6 1016.6 4.0
21/03:00pm 17.2 18.9 15.2 88 1.2 CALM 0 0 0 0 1016.2 1016.2 4.0
21/02:30pm 17.2 19.0 15.4 89 1.1 CALM 0 6 0 3 1016.4 1016.4 4.0
21/02:00pm 17.2 17.8 15.4 89 1.0 WNW 6 7 3 4 1016.7 1016.7 4.0
21/01:30pm 16.9 16.8 14.9 88 1.2 WNW 9 11 5 6 1016.6 1016.6 4.0
21/01:00pm 16.4 16.3 14.9 91 0.9 NNW 9 13 5 7 1016.7 1016.7 4.0
21/12:30pm 16.3 16.7 15.2 93 0.6 NNW 7 11 4 6 1017.1 1017.1 4.0
21/12:00pm 15.9 15.4 14.9 94 0.6 NW 11 13 6 7 1017.8 1017.8 4.0
21/11:30am 15.6 16.5 15.0 96 0.3 WNW 4 9 2 5 1018.1 1018.1 4.0
21/11:00am 15.1 15.4 14.5 96 0.3 W 6 11 3 6 1018.9 1018.9 3.8
21/10:30am 15.1 15.2 14.5 96 0.3 W 7 9 4 5 1019.0 1019.0 3.0
21/10:00am 15.2 15.5 14.6 96 0.3 NW 6 7 3 4 1019.5 1019.5 1.8
21/09:30am 15.1 14.8 14.5 96 0.3 WNW 9 13 5 7 1020.3 1020.3 1.2
21/09:00am 15.3 16.8 14.7 96 0.3 CALM 0 7 0 4 1019.5 1019.5 7.2
21/08:43am 15.2 16.7 14.6 96 0.3 CALM 0 0 0 0 1019.2 1019.2 7.0
21/08:30am 15.0 16.4 14.4 96 0.3 CALM 0 0 0 0 1019.3 1019.3 6.4
21/08:27am 15.0 16.4 14.4 96 0.3 CALM 0 4 0 2 1019.4 1019.4 6.2
21/08:00am 15.0 14.7 14.4 96 0.3 WNW 9 11 5 6 1020.0 1020.0 5.0
21/07:30am 15.1 14.4 14.3 95 0.5 NW 11 13 6 7 1019.4 1019.4 2.8
21/07:00am 15.2 15.4 14.2 94 0.6 NW 6 7 3 4 1018.9 1018.9 1.8
21/06:30am 15.2 16.5 14.1 93 0.6 CALM 0 0 0 0 1018.4 1018.4 1.6
21/06:00am 15.5 16.8 14.2 92 0.7 CALM 0 0 0 0 1018.1 1018.1 0.8
21/05:30am 15.5 15.6 14.4 93 0.6 W 7 13 4 7 1017.8 1017.8 0.4
21/05:00am 15.4 16.3 14.1 92 0.7 NNW 2 6 1 3 1017.0 1017.0 0.2
21/04:30am 16.0 17.4 14.5 91 0.9 CALM 0 0 0 0 1016.3 1016.3 0.2
21/04:00am 16.3 16.4 14.0 86 1.3 W 6 7 3 4 1016.9 1016.9 0.2
21/03:30am 16.6 15.3 13.7 83 1.6 W 13 17 7 9 1017.0 1017.0 0.0
21/03:00am 16.5 16.6 13.8 84 1.5 W 6 9 3 5 1017.2 1017.2 0.0
21/02:30am 16.8 15.6 13.9 83 1.6 W 13 17 7 9 1017.7 1017.7 0.0
21/02:00am 17.5 15.9 13.8 79 2.1 W 15 20 8 11 1018.0 1018.0 0.0
21/01:30am 17.5 16.7 14.0 80 2.0 W 11 13 6 7 1018.0 1018.0 0.0
21/01:00am 16.4 16.6 14.8 90 0.9 WSW 7 11 4 6 1018.0 1018.0 0.0
21/12:30am 17.2 17.8 15.9 92 0.8 SW 7 9 4 5 1018.0 1018.0 0.0
21/12:00am 17.9 18.3 16.4 91 0.9 W 9 11 5 6 1018.2 1018.2 0.0
 
Date/Time
EST
Temp
°C
App
Temp
°C
Dew
Point
Rel
Hum
%
Delta-T
°C
Wind Press
QNH
hPa
Press
MSL
hPa
Rain
since 9 am
mm
Dir
 
Spd
km/h
Gust
km/h
Spd
kts
Gust
kts
20/11:30pm 17.8 18.9 16.5 92 0.8 WSW 6 7 3 4 1018.1 1018.1 0.0
20/11:00pm 17.9 18.5 16.8 93 0.7 W 9 11 5 6 1017.8 1017.8 0.0
20/10:30pm 17.9 18.5 16.8 93 0.7 SW 9 11 5 6 1017.5 1017.5 0.0
20/10:00pm 18.0 18.3 17.0 94 0.6 SW 11 13 6 7 1017.3 1017.3 0.0
20/09:30pm 16.6 17.1 15.6 94 0.6 S 7 11 4 6 1017.1 1017.1 0.0
20/09:00pm 16.8 18.0 15.8 94 0.6 WSW 4 9 2 5 1016.9 1016.9 0.0
20/08:30pm 16.9 18.8 15.8 93 0.6 CALM 0 0 0 0 1016.6 1016.6 0.0
20/08:00pm 16.9 18.7 15.4 91 0.9 CALM 0 0 0 0 1016.2 1016.2 0.0
20/07:30pm 17.4 19.4 15.9 91 0.9 CALM 0 6 0 3 1016.3 1016.3 0.0
20/07:00pm 18.5 19.4 16.5 88 1.2 NE 7 9 4 5 1016.1 1016.1 0.0

Other Formats:

Comma delimited format used in spreadsheet applications
http://www.bom.gov.au/fwo/IDN60801/IDN60801.94786.axf

JavaScript Object Notation format (JSON) in row-major order
http://www.bom.gov.au/fwo/IDN60801/IDN60801.94786.json